createdAt,value
2023-05-14T00:02:24.821Z,2.85
2023-05-14T00:04:51.433Z,3.10
2023-05-14T00:07:17.995Z,2.80
2023-05-14T00:09:44.532Z,2.90
2023-05-14T00:12:14.045Z,3.08
2023-05-14T00:14:45.116Z,3.40
2023-05-14T00:17:11.662Z,2.83
2023-05-14T00:19:41.832Z,2.92
2023-05-14T00:22:09.292Z,2.83
2023-05-14T00:24:36.596Z,2.63
2023-05-14T00:27:06.674Z,3.50
2023-05-14T00:29:36.243Z,2.97
2023-05-14T00:32:03.881Z,2.60
2023-05-14T00:34:30.488Z,2.75
2023-05-14T00:37:01.528Z,2.80
2023-05-14T00:39:30.349Z,2.78
2023-05-14T00:41:56.916Z,3.23
2023-05-14T00:44:23.723Z,2.70
2023-05-14T00:46:53.279Z,2.67
2023-05-14T00:49:22.615Z,3.35
2023-05-14T00:51:49.190Z,3.00
2023-05-14T00:54:20.081Z,3.10
2023-05-14T00:56:49.594Z,2.67
2023-05-14T00:59:16.273Z,2.75
2023-05-14T01:01:42.851Z,3.15
2023-05-14T01:04:11.570Z,3.00
2023-05-14T01:06:51.976Z,2.80
2023-05-14T01:09:21.304Z,3.28
2023-05-14T01:12:12.371Z,3.20
2023-05-14T01:14:54.477Z,3.30
2023-05-14T01:17:26.813Z,3.20
2023-05-14T01:19:56.716Z,3.17
2023-05-14T01:22:23.264Z,3.38
2023-05-14T01:24:49.789Z,3.28
2023-05-14T01:27:31.755Z,2.65
2023-05-14T01:30:40.579Z,3.53
2023-05-14T01:33:11.022Z,3.07
2023-05-14T01:35:40.149Z,3.92
2023-05-14T01:38:12.632Z,3.80
2023-05-14T01:40:39.816Z,3.40
2023-05-14T01:43:06.587Z,3.53
2023-05-14T01:45:36.096Z,3.37
2023-05-14T01:48:02.768Z,3.83
2023-05-14T01:50:31.884Z,3.70
2023-05-14T01:52:58.457Z,3.63
2023-05-14T01:55:27.629Z,3.72
2023-05-14T01:57:56.639Z,3.13
2023-05-14T02:00:26.613Z,3.40
2023-05-14T02:02:56.047Z,3.53
2023-05-14T02:05:22.892Z,3.90
2023-05-14T02:07:51.673Z,3.88
2023-05-14T02:10:20.793Z,3.20
2023-05-14T02:12:47.588Z,3.10
2023-05-14T02:15:14.119Z,3.45
2023-05-14T02:17:40.720Z,3.20
2023-05-14T02:20:07.842Z,3.60
2023-05-14T02:22:34.352Z,3.40
2023-05-14T02:25:01.084Z,3.35
2023-05-14T02:27:30.193Z,3.60
2023-05-14T02:30:00.729Z,3.40
2023-05-14T02:32:30.198Z,4.38
2023-05-14T02:35:01.358Z,3.60
2023-05-14T02:37:32.756Z,3.40
2023-05-14T02:40:01.625Z,3.13
2023-05-14T02:42:28.159Z,3.90
2023-05-14T02:44:56.909Z,3.30
2023-05-14T02:47:23.507Z,3.03
2023-05-14T02:49:50.188Z,3.47
2023-05-14T02:52:18.980Z,3.67
2023-05-14T02:54:45.544Z,3.90
2023-05-14T02:57:12.125Z,3.33
2023-05-14T02:59:38.683Z,2.90
2023-05-14T03:02:08.207Z,3.22
2023-05-14T03:04:37.805Z,3.13
2023-05-14T03:07:06.856Z,4.35
2023-05-14T03:09:38.384Z,3.67
2023-05-14T03:12:08.185Z,3.67
2023-05-14T03:14:37.304Z,3.55
2023-05-14T03:17:04.167Z,3.13
2023-05-14T03:19:30.857Z,3.50
2023-05-14T03:21:57.480Z,3.38
2023-05-14T03:24:24.029Z,3.37
2023-05-14T03:26:50.558Z,3.00
2023-05-14T03:29:19.440Z,3.90
2023-05-14T03:31:46.134Z,3.20
2023-05-14T03:34:12.856Z,3.22
2023-05-14T03:36:39.816Z,3.20
2023-05-14T03:39:09.569Z,3.50
2023-05-14T03:41:39.308Z,3.33
2023-05-14T03:44:08.895Z,3.35
2023-05-14T03:46:35.846Z,3.40
2023-05-14T03:49:02.526Z,3.20
2023-05-14T03:51:29.132Z,3.30
2023-05-14T03:54:00.872Z,3.10
2023-05-14T03:56:27.380Z,3.38
2023-05-14T03:58:53.924Z,3.25
2023-05-14T04:01:20.475Z,3.03
2023-05-14T04:03:49.587Z,3.42
2023-05-14T04:06:16.239Z,3.50
2023-05-14T04:08:42.800Z,3.13
2023-05-14T04:11:09.340Z,3.03
2023-05-14T04:13:40.668Z,2.90
2023-05-14T04:16:07.272Z,3.13
2023-05-14T04:18:41.181Z,2.70
2023-05-14T04:21:07.749Z,2.70
2023-05-14T04:23:34.415Z,2.95
2023-05-14T04:26:01.013Z,3.13
2023-05-14T04:28:27.565Z,3.50
2023-05-14T04:31:00.203Z,3.50
2023-05-14T04:33:26.806Z,3.17
2023-05-14T04:35:53.550Z,2.92
2023-05-14T04:38:20.111Z,3.10
2023-05-14T04:40:46.689Z,3.33
2023-05-14T04:43:16.685Z,3.45
2023-05-14T04:45:45.851Z,3.90
2023-05-14T04:48:12.683Z,3.67
2023-05-14T04:50:39.443Z,4.20
2023-05-14T04:53:06.017Z,4.75
2023-05-14T04:55:32.615Z,4.47
2023-05-14T04:58:03.729Z,4.18
2023-05-14T05:00:33.549Z,4.80
2023-05-14T05:03:03.448Z,4.60
2023-05-14T05:05:32.415Z,4.80
2023-05-14T05:07:58.978Z,4.18
2023-05-14T05:10:27.885Z,4.63
2023-05-14T05:12:54.417Z,4.38
2023-05-14T05:15:20.994Z,4.47
2023-05-14T05:17:47.611Z,4.47
2023-05-14T05:20:16.533Z,4.65
2023-05-14T05:22:45.509Z,4.15
2023-05-14T05:25:16.820Z,4.65
2023-05-14T05:27:43.391Z,4.30
2023-05-14T05:30:12.809Z,4.35
2023-05-14T05:32:39.496Z,4.22
2023-05-14T05:35:06.623Z,4.10
2023-05-14T05:37:33.214Z,4.78
2023-05-14T05:40:02.102Z,4.33
2023-05-14T05:42:28.729Z,4.25
2023-05-14T05:44:55.518Z,4.57
2023-05-14T05:47:24.393Z,4.53
2023-05-14T05:49:50.938Z,4.28
2023-05-14T05:52:19.740Z,4.30
2023-05-14T05:54:46.422Z,4.10
2023-05-14T05:57:13.102Z,4.28
2023-05-14T05:59:44.474Z,4.68
2023-05-14T06:02:13.502Z,4.35
2023-05-14T06:04:40.211Z,4.40
2023-05-14T06:07:06.765Z,4.55
2023-05-14T06:09:38.042Z,4.28
2023-05-14T06:12:04.993Z,4.50
2023-05-14T06:14:31.592Z,4.35
2023-05-14T06:16:58.853Z,4.70
2023-05-14T06:19:25.526Z,4.32
2023-05-14T06:21:56.612Z,4.72
2023-05-14T06:24:25.514Z,4.20
2023-05-14T06:26:54.293Z,4.43
2023-05-14T06:29:20.990Z,4.50
2023-05-14T06:31:47.651Z,4.30
2023-05-14T06:34:14.302Z,4.15
2023-05-14T06:36:43.199Z,7.50
2023-05-14T06:39:16.812Z,4.72
2023-05-14T06:41:43.386Z,4.27
2023-05-14T06:44:12.146Z,4.57
2023-05-14T06:46:43.238Z,4.40
2023-05-14T06:49:09.995Z,4.68
2023-05-14T06:51:39.107Z,4.63
2023-05-14T06:54:05.699Z,4.50
2023-05-14T06:56:34.883Z,4.28
2023-05-14T06:59:04.015Z,4.65
2023-05-14T07:01:32.871Z,4.20
2023-05-14T07:03:59.574Z,4.70
2023-05-14T07:06:26.183Z,4.40
2023-05-14T07:08:53.360Z,3.25
2023-05-14T07:11:22.394Z,3.00
2023-05-14T07:13:48.994Z,3.28
2023-05-14T07:16:18.065Z,2.97
2023-05-14T07:18:45.668Z,3.00
2023-05-14T07:21:14.500Z,2.90
2023-05-14T07:23:43.259Z,2.80
2023-05-14T07:26:09.921Z,3.00
2023-05-14T07:28:36.587Z,3.10
2023-05-14T07:31:08.785Z,2.40
2023-05-14T07:33:40.898Z,2.25
2023-05-14T07:36:10.709Z,2.60
2023-05-14T07:38:37.326Z,2.58
2023-05-14T07:41:08.490Z,2.58
2023-05-14T07:43:35.049Z,2.37
2023-05-14T07:46:04.579Z,2.80
2023-05-14T07:48:31.210Z,2.75
2023-05-14T07:51:00.202Z,2.70
2023-05-14T07:53:26.836Z,2.53
2023-05-14T07:55:55.705Z,2.87
2023-05-14T07:58:23.145Z,2.45
2023-05-14T08:00:51.958Z,3.00
2023-05-14T08:03:18.744Z,2.78
2023-05-14T08:05:45.921Z,2.97
2023-05-14T08:08:14.928Z,2.60
2023-05-14T08:10:41.581Z,2.83
2023-05-14T08:13:10.974Z,3.30
2023-05-14T08:15:37.566Z,3.05
2023-05-14T08:18:06.654Z,3.10
2023-05-14T08:20:33.249Z,3.00
2023-05-14T08:22:59.765Z,2.67
2023-05-14T08:25:28.805Z,3.00
2023-05-14T08:27:59.757Z,2.70
2023-05-14T08:30:26.666Z,3.58
2023-05-14T08:32:53.734Z,2.77
2023-05-14T08:35:20.339Z,3.03
2023-05-14T08:37:46.959Z,3.20
2023-05-14T08:40:13.724Z,3.33
2023-05-14T08:42:44.943Z,3.22
2023-05-14T08:45:28.847Z,3.20
2023-05-14T08:47:58.549Z,3.75
2023-05-14T08:50:25.679Z,2.80
2023-05-14T08:52:53.141Z,3.38
2023-05-14T08:55:20.105Z,3.47
2023-05-14T08:57:46.761Z,3.03
2023-05-14T09:00:15.573Z,3.20
2023-05-14T09:02:46.726Z,3.15
2023-05-14T09:05:14.905Z,2.88
2023-05-14T09:07:41.750Z,3.42
2023-05-14T09:10:11.537Z,2.93
2023-05-14T09:12:40.463Z,3.30
2023-05-14T09:15:07.323Z,3.60
2023-05-14T09:17:36.491Z,3.83
2023-05-14T09:20:04.104Z,3.50
2023-05-14T09:22:33.524Z,4.00
2023-05-14T09:25:13.134Z,4.05
2023-05-14T09:27:46.580Z,3.67
2023-05-14T09:30:13.820Z,4.18
2023-05-14T09:32:45.834Z,4.47
2023-05-14T09:35:18.371Z,4.43
2023-05-14T09:37:49.434Z,3.90
2023-05-14T09:40:19.564Z,4.00
2023-05-14T09:42:50.930Z,3.80
2023-05-14T09:45:20.435Z,4.10
2023-05-14T09:47:47.408Z,3.47
2023-05-14T09:50:14.166Z,3.97
2023-05-14T09:52:42.919Z,3.78
2023-05-14T09:55:09.701Z,3.45
2023-05-14T09:57:38.523Z,3.92
2023-05-14T10:00:05.843Z,3.80
2023-05-14T10:02:41.565Z,3.13
2023-05-14T10:05:09.544Z,3.67
2023-05-14T10:07:47.986Z,3.78
2023-05-14T10:10:18.465Z,3.50
2023-05-14T10:12:52.784Z,3.03
2023-05-14T10:15:41.999Z,3.40
2023-05-14T10:18:20.020Z,3.58
2023-05-14T10:21:01.084Z,3.38
2023-05-14T10:23:30.312Z,3.35
2023-05-14T10:25:58.575Z,3.00
2023-05-14T10:28:25.949Z,3.50
2023-05-14T10:30:56.589Z,3.38
2023-05-14T10:33:23.175Z,3.50
2023-05-14T10:36:02.620Z,3.47
2023-05-14T10:38:33.444Z,3.30
2023-05-14T10:41:02.465Z,3.10
2023-05-14T10:43:36.393Z,3.30
2023-05-14T10:46:03.644Z,3.03
2023-05-14T10:48:35.289Z,3.25
2023-05-14T10:51:07.501Z,2.80
2023-05-14T10:53:41.809Z,2.95
2023-05-14T10:56:14.684Z,3.30
2023-05-14T10:58:45.853Z,2.85
2023-05-14T11:01:15.563Z,2.90
2023-05-14T11:03:46.817Z,3.63
2023-05-14T11:06:15.219Z,4.38
2023-05-14T11:08:46.534Z,4.07
2023-05-14T11:11:13.268Z,2.13
2023-05-14T11:13:41.449Z,2.22
2023-05-14T11:16:21.926Z,2.70
2023-05-14T11:19:01.880Z,3.65
2023-05-14T11:21:28.878Z,2.92
2023-05-14T11:23:56.572Z,2.95
2023-05-14T11:26:24.260Z,3.35
2023-05-14T11:28:50.960Z,3.13
2023-05-14T11:31:24.633Z,3.50
2023-05-14T11:33:52.528Z,3.15
2023-05-14T11:36:19.061Z,3.65
2023-05-14T11:38:51.359Z,3.00
2023-05-14T11:41:18.125Z,3.37
2023-05-14T11:43:47.680Z,2.80
2023-05-14T11:46:20.720Z,3.08
2023-05-14T11:48:49.629Z,2.88
2023-05-14T11:51:16.251Z,2.45
2023-05-14T11:53:45.559Z,2.60
2023-05-14T11:56:14.706Z,2.60
2023-05-14T11:58:43.738Z,2.97
2023-05-14T12:01:18.106Z,1.70
2023-05-14T12:03:47.391Z,1.45
2023-05-14T12:06:19.258Z,1.70
2023-05-14T12:08:48.306Z,1.77
2023-05-14T12:11:14.936Z,1.60
2023-05-14T12:13:42.017Z,1.52
2023-05-14T12:16:09.061Z,1.88
2023-05-14T12:18:35.923Z,1.50
2023-05-14T12:21:08.698Z,1.55
2023-05-14T12:23:35.558Z,7.90
2023-05-14T12:26:11.764Z,2.20
2023-05-14T12:28:43.234Z,1.95
2023-05-14T12:31:12.529Z,1.93
2023-05-14T12:33:39.085Z,1.73
2023-05-14T12:36:21.275Z,1.45
2023-05-14T12:38:52.850Z,5.90
2023-05-14T12:41:21.775Z,1.90
2023-05-14T12:43:51.219Z,1.90
2023-05-14T12:46:17.938Z,1.70
2023-05-14T12:48:44.493Z,1.98
2023-05-14T12:51:11.001Z,2.28
2023-05-14T12:53:39.709Z,2.17
2023-05-14T12:56:08.880Z,1.57
2023-05-14T12:58:35.712Z,1.60
2023-05-14T13:01:04.915Z,1.90
2023-05-14T13:03:34.329Z,1.90
2023-05-14T13:06:01.432Z,1.70
2023-05-14T13:08:30.133Z,1.53
2023-05-14T13:10:56.906Z,1.80
2023-05-14T13:13:26.317Z,2.00
2023-05-14T13:15:53.395Z,1.50
2023-05-14T13:18:20.026Z,1.50
2023-05-14T13:20:47.592Z,1.53
2023-05-14T13:23:14.631Z,1.60
2023-05-14T13:25:41.432Z,1.83
2023-05-14T13:28:08.799Z,1.67
2023-05-14T13:30:38.054Z,1.73
2023-05-14T13:33:08.963Z,1.90
2023-05-14T13:35:38.057Z,1.80
2023-05-14T13:38:04.652Z,1.60
2023-05-14T13:40:33.489Z,1.50
2023-05-14T13:43:03.127Z,1.70
2023-05-14T13:45:29.716Z,1.80
2023-05-14T13:47:56.808Z,1.58
2023-05-14T13:50:23.406Z,1.40
2023-05-14T13:52:50.009Z,2.15
2023-05-14T13:55:18.793Z,1.90
2023-05-14T13:57:45.359Z,1.67
2023-05-14T14:00:13.444Z,1.80
2023-05-14T14:02:40.210Z,1.70
2023-05-14T14:05:07.285Z,1.45
2023-05-14T14:07:33.881Z,2.13
2023-05-14T14:10:01.754Z,1.40
2023-05-14T14:12:28.469Z,1.25
2023-05-14T14:14:55.129Z,1.50
2023-05-14T14:17:21.740Z,1.77
2023-05-14T14:19:50.771Z,1.67
2023-05-14T14:22:19.630Z,1.50
2023-05-14T14:24:46.389Z,2.10
2023-05-14T14:27:13.082Z,1.58
2023-05-14T14:29:39.690Z,1.70
2023-05-14T14:32:09.073Z,1.45
2023-05-14T14:34:38.931Z,1.30
2023-05-14T14:37:05.552Z,1.10
2023-05-14T14:39:34.755Z,1.45
2023-05-14T14:42:03.604Z,1.60
2023-05-14T14:44:30.233Z,1.60
2023-05-14T14:46:56.811Z,1.60
2023-05-14T14:49:23.572Z,1.30
2023-05-14T14:51:52.375Z,1.40
2023-05-14T14:54:18.962Z,1.20
2023-05-14T14:56:52.508Z,1.08
2023-05-14T14:59:19.116Z,1.00
2023-05-14T15:01:45.826Z,1.52
2023-05-14T15:04:15.010Z,1.20
2023-05-14T15:06:41.550Z,5.10
2023-05-14T15:09:08.114Z,16.70
2023-05-14T15:11:37.572Z,1.93
2023-05-14T15:14:04.414Z,2.53
2023-05-14T15:16:31.052Z,2.53
2023-05-14T15:19:00.265Z,1.55
2023-05-14T15:21:27.036Z,1.60
2023-05-14T15:23:53.554Z,1.70
2023-05-14T15:26:20.087Z,1.65
2023-05-14T15:28:46.662Z,1.58
2023-05-14T15:31:15.784Z,1.20
2023-05-14T15:33:42.559Z,1.95
2023-05-14T15:36:11.487Z,1.30
2023-05-14T15:38:38.286Z,1.42
2023-05-14T15:41:05.361Z,1.77
2023-05-14T15:43:31.894Z,1.77
2023-05-14T15:45:58.456Z,1.98
2023-05-14T15:48:25.069Z,1.23
2023-05-14T15:50:54.207Z,1.40
2023-05-14T15:53:20.906Z,1.63
2023-05-14T15:55:50.814Z,1.48
2023-05-14T15:58:17.518Z,2.30
2023-05-14T16:00:48.590Z,1.63
2023-05-14T16:03:15.363Z,1.20
2023-05-14T16:05:45.052Z,1.30
2023-05-14T16:08:11.654Z,1.48
2023-05-14T16:10:38.641Z,1.58
2023-05-14T16:13:05.305Z,4.63
2023-05-14T16:15:32.014Z,2.47
2023-05-14T16:17:59.794Z,1.50
2023-05-14T16:20:26.491Z,1.50
2023-05-14T16:22:53.140Z,1.38
2023-05-14T16:25:24.594Z,1.70
2023-05-14T16:27:51.289Z,1.55
2023-05-14T16:30:22.655Z,1.42
2023-05-14T16:32:49.704Z,1.27
2023-05-14T16:35:16.850Z,1.80
2023-05-14T16:37:43.726Z,1.37
2023-05-14T16:40:11.830Z,1.20
2023-05-14T16:42:38.742Z,2.03
2023-05-14T16:45:08.022Z,1.80
2023-05-14T16:47:34.589Z,1.52
2023-05-14T16:50:01.182Z,1.70
2023-05-14T16:52:30.091Z,1.48
2023-05-14T16:54:56.717Z,1.50
2023-05-14T16:57:23.472Z,1.23
2023-05-14T16:59:52.232Z,1.58
2023-05-14T17:02:24.625Z,1.40
2023-05-14T17:04:51.292Z,1.27
2023-05-14T17:07:20.724Z,1.83
2023-05-14T17:09:47.309Z,1.33
2023-05-14T17:12:14.004Z,1.50
2023-05-14T17:14:42.649Z,1.30
2023-05-14T17:17:09.390Z,1.50
2023-05-14T17:19:38.280Z,1.40
2023-05-14T17:22:07.353Z,1.42
2023-05-14T17:24:35.486Z,1.50
2023-05-14T17:27:02.130Z,1.20
2023-05-14T17:29:31.840Z,1.10
2023-05-14T17:31:58.496Z,1.17
2023-05-14T17:34:27.555Z,1.35
2023-05-14T17:36:54.144Z,1.70
2023-05-14T17:39:20.730Z,1.13
2023-05-14T17:41:49.321Z,1.35
2023-05-14T17:44:18.166Z,1.30
2023-05-14T17:46:45.792Z,1.48
2023-05-14T17:49:12.366Z,1.35
2023-05-14T17:51:41.936Z,1.17
2023-05-14T17:54:10.889Z,1.33
2023-05-14T17:56:40.017Z,1.42
2023-05-14T17:59:07.074Z,2.13
2023-05-14T18:01:33.801Z,1.60
2023-05-14T18:04:00.534Z,1.20
2023-05-14T18:06:29.694Z,1.50
2023-05-14T18:08:58.477Z,1.40
2023-05-14T18:11:25.109Z,1.50
2023-05-14T18:13:51.680Z,1.83
2023-05-14T18:16:18.285Z,1.30
2023-05-14T18:18:44.977Z,1.40
2023-05-14T18:21:11.544Z,1.38
2023-05-14T18:23:41.177Z,1.20
2023-05-14T18:26:07.849Z,1.50
2023-05-14T18:28:37.100Z,1.20
2023-05-14T18:31:08.782Z,1.30
2023-05-14T18:33:35.601Z,1.40
2023-05-14T18:36:02.321Z,1.30
2023-05-14T18:38:34.175Z,1.60
2023-05-14T18:41:05.692Z,1.23
2023-05-14T18:43:34.488Z,1.52
2023-05-14T18:46:01.108Z,1.67
2023-05-14T18:48:27.912Z,1.48
2023-05-14T18:50:56.888Z,1.30
2023-05-14T18:53:29.316Z,1.33
2023-05-14T18:56:02.411Z,1.23
2023-05-14T18:58:31.418Z,1.40
2023-05-14T19:00:59.070Z,1.38
2023-05-14T19:03:27.955Z,1.55
2023-05-14T19:05:54.850Z,1.17
2023-05-14T19:08:21.415Z,1.40
2023-05-14T19:10:48.560Z,1.50
2023-05-14T19:13:17.569Z,1.40
2023-05-14T19:15:46.424Z,1.50
2023-05-14T19:18:15.371Z,1.50
2023-05-14T19:20:42.507Z,1.50
2023-05-14T19:23:13.835Z,1.40
2023-05-14T19:25:40.487Z,1.30
2023-05-14T19:28:09.242Z,1.13
2023-05-14T19:30:35.826Z,1.57
2023-05-14T19:33:02.419Z,1.20
2023-05-14T19:35:29.005Z,1.48
2023-05-14T19:37:55.546Z,1.33
2023-05-14T19:40:22.103Z,1.38
2023-05-14T19:42:48.735Z,1.60
2023-05-14T19:45:17.733Z,1.20
2023-05-14T19:47:46.725Z,1.63
2023-05-14T19:50:18.051Z,1.30
2023-05-14T19:52:44.608Z,1.20
2023-05-14T19:55:13.623Z,1.40
2023-05-14T19:57:40.251Z,1.40
2023-05-14T20:00:10.532Z,1.58
2023-05-14T20:02:41.019Z,1.50
2023-05-14T20:05:12.827Z,1.27
2023-05-14T20:07:42.597Z,1.37
2023-05-14T20:10:12.887Z,1.30
2023-05-14T20:12:39.412Z,1.50
2023-05-14T20:15:06.258Z,1.40
2023-05-14T20:17:34.883Z,1.45
2023-05-14T20:20:01.649Z,1.50
2023-05-14T20:22:28.196Z,1.77
2023-05-14T20:24:54.856Z,1.60
2023-05-14T20:27:21.833Z,1.30
2023-05-14T20:29:51.368Z,1.52
2023-05-14T20:32:18.075Z,2.10
2023-05-14T20:34:47.121Z,1.50
2023-05-14T20:37:15.901Z,1.60
2023-05-14T20:39:42.486Z,1.60
2023-05-14T20:42:11.654Z,1.40
2023-05-14T20:44:38.248Z,1.30
2023-05-14T20:47:09.631Z,1.80
2023-05-14T20:49:36.193Z,1.30
2023-05-14T20:52:02.803Z,1.38
2023-05-14T20:54:29.317Z,1.70
2023-05-14T20:56:55.902Z,1.50
2023-05-14T20:59:27.329Z,1.50
2023-05-14T21:01:53.898Z,1.60
2023-05-14T21:04:20.688Z,1.55
2023-05-14T21:06:47.500Z,1.75
2023-05-14T21:09:16.353Z,1.40
2023-05-14T21:11:42.940Z,1.88
2023-05-14T21:14:12.503Z,2.80
2023-05-14T21:16:44.043Z,2.53
2023-05-14T21:19:15.240Z,1.98
2023-05-14T21:21:42.149Z,1.80
2023-05-14T21:24:13.447Z,1.90
2023-05-14T21:26:41.417Z,1.50
2023-05-14T21:29:07.996Z,1.50
2023-05-14T21:31:36.764Z,1.60
2023-05-14T21:34:03.289Z,1.50
2023-05-14T21:36:29.855Z,1.70
2023-05-14T21:38:58.945Z,1.90
2023-05-14T21:41:27.860Z,1.73
2023-05-14T21:43:54.450Z,1.85
2023-05-14T21:46:21.185Z,1.60
2023-05-14T21:48:47.866Z,1.45
2023-05-14T21:51:16.747Z,1.38
2023-05-14T21:53:43.331Z,1.25
2023-05-14T21:56:10.055Z,1.73
2023-05-14T21:58:39.595Z,1.50
2023-05-14T22:01:06.188Z,1.33
2023-05-14T22:03:32.804Z,1.40
2023-05-14T22:05:59.383Z,1.45
2023-05-14T22:08:29.613Z,1.50
2023-05-14T22:10:56.475Z,1.43
2023-05-14T22:13:25.307Z,1.48
2023-05-14T22:16:09.111Z,1.30
2023-05-14T22:18:41.626Z,1.15
2023-05-14T22:21:10.887Z,1.20
2023-05-14T22:23:37.563Z,1.27
2023-05-14T22:26:04.611Z,1.20
2023-05-14T22:28:34.162Z,1.25
2023-05-14T22:31:04.190Z,1.80
2023-05-14T22:33:33.313Z,1.48
2023-05-14T22:35:59.846Z,1.70
2023-05-14T22:38:26.408Z,1.50
2023-05-14T22:40:53.012Z,1.48
2023-05-14T22:43:19.579Z,1.45
2023-05-14T22:45:48.469Z,1.05
2023-05-14T22:48:20.297Z,1.10
2023-05-14T22:50:46.819Z,1.10
2023-05-14T22:53:15.790Z,1.40
2023-05-14T22:55:42.351Z,1.08
2023-05-14T22:58:13.647Z,1.20
2023-05-14T23:00:42.578Z,1.70
2023-05-14T23:03:09.165Z,1.65
2023-05-14T23:05:35.950Z,1.40
2023-05-14T23:08:02.629Z,1.80
2023-05-14T23:10:29.638Z,1.60
2023-05-14T23:12:56.206Z,1.30
2023-05-14T23:15:25.219Z,1.27
2023-05-14T23:17:52.007Z,1.75
2023-05-14T23:20:20.810Z,1.35
2023-05-14T23:22:52.426Z,1.60
2023-05-14T23:25:18.907Z,1.60
2023-05-14T23:27:48.026Z,1.50
2023-05-14T23:30:14.591Z,1.50
2023-05-14T23:32:41.140Z,1.17
2023-05-14T23:35:10.152Z,1.30
2023-05-14T23:37:47.183Z,1.50
2023-05-14T23:40:14.217Z,1.20
2023-05-14T23:42:43.922Z,1.58
2023-05-14T23:45:13.679Z,1.30
2023-05-14T23:47:42.654Z,1.70
2023-05-14T23:50:09.479Z,1.53
2023-05-14T23:52:36.042Z,1.50
2023-05-14T23:55:02.637Z,1.50
2023-05-14T23:57:31.905Z,1.50
